sensor_id;sensor_type;location;lat;lon;timestamp;temperature;humidity
20658;DHT22;10488;50.846;4.078;2023-08-07T00:00:36;12.10;99.90
20658;DHT22;10488;50.846;4.078;2023-08-07T00:03:02;12.00;99.90
20658;DHT22;10488;50.846;4.078;2023-08-07T00:05:28;12.10;99.90
20658;DHT22;10488;50.846;4.078;2023-08-07T00:07:54;12.10;99.90
20658;DHT22;10488;50.846;4.078;2023-08-07T00:10:20;12.10;99.90
20658;DHT22;10488;50.846;4.078;2023-08-07T00:12:45;12.10;99.90
20658;DHT22;10488;50.846;4.078;2023-08-07T00:15:11;12.10;99.90
20658;DHT22;10488;50.846;4.078;2023-08-07T00:17:37;12.10;99.90
20658;DHT22;10488;50.846;4.078;2023-08-07T00:20:04;12.10;99.90
20658;DHT22;10488;50.846;4.078;2023-08-07T00:22:29;12.10;99.90
20658;DHT22;10488;50.846;4.078;2023-08-07T00:24:55;12.10;99.90
20658;DHT22;10488;50.846;4.078;2023-08-07T00:27:21;12.10;99.90
20658;DHT22;10488;50.846;4.078;2023-08-07T00:29:47;12.00;99.90
20658;DHT22;10488;50.846;4.078;2023-08-07T00:32:13;11.90;99.90
20658;DHT22;10488;50.846;4.078;2023-08-07T00:34:38;12.00;99.90
20658;DHT22;10488;50.846;4.078;2023-08-07T00:37:04;12.00;99.90
20658;DHT22;10488;50.846;4.078;2023-08-07T00:39:30;11.90;99.90
20658;DHT22;10488;50.846;4.078;2023-08-07T00:41:56;11.90;99.90
20658;DHT22;10488;50.846;4.078;2023-08-07T00:44:21;11.90;99.90
20658;DHT22;10488;50.846;4.078;2023-08-07T00:46:49;11.80;99.90
20658;DHT22;10488;50.846;4.078;2023-08-07T00:49:15;11.80;99.90
20658;DHT22;10488;50.846;4.078;2023-08-07T00:51:42;11.80;99.90
20658;DHT22;10488;50.846;4.078;2023-08-07T00:54:10;11.80;99.90
20658;DHT22;10488;50.846;4.078;2023-08-07T00:56:37;11.80;99.90
20658;DHT22;10488;50.846;4.078;2023-08-07T00:59:03;11.80;99.90
20658;DHT22;10488;50.846;4.078;2023-08-07T01:01:29;11.70;99.90
20658;DHT22;10488;50.846;4.078;2023-08-07T01:03:54;11.70;99.90
20658;DHT22;10488;50.846;4.078;2023-08-07T01:06:20;11.60;99.90
20658;DHT22;10488;50.846;4.078;2023-08-07T01:08:46;11.70;99.90
20658;DHT22;10488;50.846;4.078;2023-08-07T01:16:23;11.60;99.90
20658;DHT22;10488;50.846;4.078;2023-08-07T01:18:52;11.60;99.90
20658;DHT22;10488;50.846;4.078;2023-08-07T01:21:19;11.70;99.90
20658;DHT22;10488;50.846;4.078;2023-08-07T01:23:48;11.70;99.90
20658;DHT22;10488;50.846;4.078;2023-08-07T01:26:15;11.60;99.90
20658;DHT22;10488;50.846;4.078;2023-08-07T01:29:01;11.60;99.90
20658;DHT22;10488;50.846;4.078;2023-08-07T01:31:33;11.50;99.90
20658;DHT22;10488;50.846;4.078;2023-08-07T01:34:04;11.50;99.90
20658;DHT22;10488;50.846;4.078;2023-08-07T01:36:30;11.50;99.90
20658;DHT22;10488;50.846;4.078;2023-08-07T01:38:57;11.50;99.90
20658;DHT22;10488;50.846;4.078;2023-08-07T01:41:25;11.50;99.90
20658;DHT22;10488;50.846;4.078;2023-08-07T01:43:51;11.50;99.90
20658;DHT22;10488;50.846;4.078;2023-08-07T01:46:17;11.40;99.90
20658;DHT22;10488;50.846;4.078;2023-08-07T01:48:43;11.40;99.90
20658;DHT22;10488;50.846;4.078;2023-08-07T01:51:09;11.30;99.90
20658;DHT22;10488;50.846;4.078;2023-08-07T01:53:35;11.30;99.90
20658;DHT22;10488;50.846;4.078;2023-08-07T01:56:00;11.20;99.90
20658;DHT22;10488;50.846;4.078;2023-08-07T01:58:26;11.20;99.90
20658;DHT22;10488;50.846;4.078;2023-08-07T02:00:52;11.20;99.90
20658;DHT22;10488;50.846;4.078;2023-08-07T02:03:19;11.20;99.90
20658;DHT22;10488;50.846;4.078;2023-08-07T02:05:45;11.20;99.90
20658;DHT22;10488;50.846;4.078;2023-08-07T02:08:11;11.20;99.90
20658;DHT22;10488;50.846;4.078;2023-08-07T02:10:37;11.20;99.90
20658;DHT22;10488;50.846;4.078;2023-08-07T02:13:03;11.20;99.90
20658;DHT22;10488;50.846;4.078;2023-08-07T02:15:28;11.20;99.90
20658;DHT22;10488;50.846;4.078;2023-08-07T02:17:54;11.20;99.90
20658;DHT22;10488;50.846;4.078;2023-08-07T02:20:20;11.20;99.90
20658;DHT22;10488;50.846;4.078;2023-08-07T02:22:45;11.10;99.90
20658;DHT22;10488;50.846;4.078;2023-08-07T02:25:11;11.20;99.90
20658;DHT22;10488;50.846;4.078;2023-08-07T02:27:37;11.20;99.90
20658;DHT22;10488;50.846;4.078;2023-08-07T02:30:03;11.20;99.90
20658;DHT22;10488;50.846;4.078;2023-08-07T02:32:29;11.10;99.90
20658;DHT22;10488;50.846;4.078;2023-08-07T02:34:55;11.10;99.90
20658;DHT22;10488;50.846;4.078;2023-08-07T02:37:21;11.10;99.90
20658;DHT22;10488;50.846;4.078;2023-08-07T02:39:47;11.10;99.90
20658;DHT22;10488;50.846;4.078;2023-08-07T02:42:12;11.10;99.90
20658;DHT22;10488;50.846;4.078;2023-08-07T02:44:38;11.00;99.90
20658;DHT22;10488;50.846;4.078;2023-08-07T02:47:04;11.00;99.90
20658;DHT22;10488;50.846;4.078;2023-08-07T02:49:30;11.00;99.90
20658;DHT22;10488;50.846;4.078;2023-08-07T02:51:55;11.00;99.90
20658;DHT22;10488;50.846;4.078;2023-08-07T02:54:21;11.10;99.90
20658;DHT22;10488;50.846;4.078;2023-08-07T02:56:47;11.20;99.90
20658;DHT22;10488;50.846;4.078;2023-08-07T02:59:14;11.20;99.90
20658;DHT22;10488;50.846;4.078;2023-08-07T03:01:40;11.40;99.90
20658;DHT22;10488;50.846;4.078;2023-08-07T03:04:06;11.40;99.90
20658;DHT22;10488;50.846;4.078;2023-08-07T03:06:31;11.50;99.90
20658;DHT22;10488;50.846;4.078;2023-08-07T03:08:57;11.70;99.90
20658;DHT22;10488;50.846;4.078;2023-08-07T03:11:23;11.70;99.90
20658;DHT22;10488;50.846;4.078;2023-08-07T03:13:48;11.90;99.90
20658;DHT22;10488;50.846;4.078;2023-08-07T03:16:14;12.00;99.90
20658;DHT22;10488;50.846;4.078;2023-08-07T03:18:40;12.10;99.90
20658;DHT22;10488;50.846;4.078;2023-08-07T03:21:07;12.10;99.90
20658;DHT22;10488;50.846;4.078;2023-08-07T03:23:33;12.00;99.90
20658;DHT22;10488;50.846;4.078;2023-08-07T03:26:03;11.90;99.90
20658;DHT22;10488;50.846;4.078;2023-08-07T03:28:29;11.80;99.90
20658;DHT22;10488;50.846;4.078;2023-08-07T03:30:54;11.70;99.90
20658;DHT22;10488;50.846;4.078;2023-08-07T03:33:20;11.60;99.90
20658;DHT22;10488;50.846;4.078;2023-08-07T03:35:45;11.60;99.90
20658;DHT22;10488;50.846;4.078;2023-08-07T03:38:11;11.50;99.90
20658;DHT22;10488;50.846;4.078;2023-08-07T03:40:37;11.70;99.90
20658;DHT22;10488;50.846;4.078;2023-08-07T03:43:02;11.60;99.90
20658;DHT22;10488;50.846;4.078;2023-08-07T03:45:28;11.70;99.90
20658;DHT22;10488;50.846;4.078;2023-08-07T03:47:54;11.60;99.90
20658;DHT22;10488;50.846;4.078;2023-08-07T03:50:19;11.60;99.90
20658;DHT22;10488;50.846;4.078;2023-08-07T03:52:45;11.40;99.90
20658;DHT22;10488;50.846;4.078;2023-08-07T03:55:11;11.40;99.90
20658;DHT22;10488;50.846;4.078;2023-08-07T03:57:36;11.40;99.90
20658;DHT22;10488;50.846;4.078;2023-08-07T04:00:02;11.30;99.90
20658;DHT22;10488;50.846;4.078;2023-08-07T04:02:28;11.30;99.90
20658;DHT22;10488;50.846;4.078;2023-08-07T04:04:55;11.30;99.90
20658;DHT22;10488;50.846;4.078;2023-08-07T04:07:21;11.30;99.90
20658;DHT22;10488;50.846;4.078;2023-08-07T04:09:46;11.20;99.90
20658;DHT22;10488;50.846;4.078;2023-08-07T04:12:12;11.30;99.90
20658;DHT22;10488;50.846;4.078;2023-08-07T04:14:38;11.30;99.90
20658;DHT22;10488;50.846;4.078;2023-08-07T04:17:04;11.20;99.90
20658;DHT22;10488;50.846;4.078;2023-08-07T04:19:29;11.20;99.90
20658;DHT22;10488;50.846;4.078;2023-08-07T04:21:55;11.20;99.90
20658;DHT22;10488;50.846;4.078;2023-08-07T04:24:21;11.20;99.90
20658;DHT22;10488;50.846;4.078;2023-08-07T04:26:46;11.30;99.90
20658;DHT22;10488;50.846;4.078;2023-08-07T04:29:12;11.30;99.90
20658;DHT22;10488;50.846;4.078;2023-08-07T04:31:37;11.30;99.90
20658;DHT22;10488;50.846;4.078;2023-08-07T04:34:03;11.40;99.90
20658;DHT22;10488;50.846;4.078;2023-08-07T04:36:29;11.30;99.90
20658;DHT22;10488;50.846;4.078;2023-08-07T04:38:54;11.30;99.90
20658;DHT22;10488;50.846;4.078;2023-08-07T04:41:21;11.30;99.90
20658;DHT22;10488;50.846;4.078;2023-08-07T04:43:47;11.30;99.90
20658;DHT22;10488;50.846;4.078;2023-08-07T04:46:14;11.30;99.90
20658;DHT22;10488;50.846;4.078;2023-08-07T04:48:40;11.20;99.90
20658;DHT22;10488;50.846;4.078;2023-08-07T04:51:05;11.30;99.90
20658;DHT22;10488;50.846;4.078;2023-08-07T04:53:31;11.20;99.90
20658;DHT22;10488;50.846;4.078;2023-08-07T04:55:58;11.30;99.90
20658;DHT22;10488;50.846;4.078;2023-08-07T04:58:24;11.30;99.90
20658;DHT22;10488;50.846;4.078;2023-08-07T05:00:57;11.40;99.90
20658;DHT22;10488;50.846;4.078;2023-08-07T05:03:24;11.50;99.90
20658;DHT22;10488;50.846;4.078;2023-08-07T05:05:50;11.40;99.90
20658;DHT22;10488;50.846;4.078;2023-08-07T05:08:16;11.50;99.90
20658;DHT22;10488;50.846;4.078;2023-08-07T05:10:42;11.60;99.90
20658;DHT22;10488;50.846;4.078;2023-08-07T05:13:08;11.60;99.90
20658;DHT22;10488;50.846;4.078;2023-08-07T05:15:33;11.80;99.90
20658;DHT22;10488;50.846;4.078;2023-08-07T05:17:59;11.80;99.90
20658;DHT22;10488;50.846;4.078;2023-08-07T05:20:25;11.80;99.90
20658;DHT22;10488;50.846;4.078;2023-08-07T05:22:51;12.00;99.90
20658;DHT22;10488;50.846;4.078;2023-08-07T05:25:17;12.10;99.90
20658;DHT22;10488;50.846;4.078;2023-08-07T05:27:46;12.20;99.90
20658;DHT22;10488;50.846;4.078;2023-08-07T05:30:13;12.20;99.90
20658;DHT22;10488;50.846;4.078;2023-08-07T05:32:39;12.30;99.90
20658;DHT22;10488;50.846;4.078;2023-08-07T05:35:05;12.30;99.90
20658;DHT22;10488;50.846;4.078;2023-08-07T05:37:32;12.30;99.90
20658;DHT22;10488;50.846;4.078;2023-08-07T05:39:58;12.40;99.90
20658;DHT22;10488;50.846;4.078;2023-08-07T05:42:24;12.60;99.90
20658;DHT22;10488;50.846;4.078;2023-08-07T05:44:50;13.10;99.90
20658;DHT22;10488;50.846;4.078;2023-08-07T05:47:15;14.00;99.90
20658;DHT22;10488;50.846;4.078;2023-08-07T05:49:41;15.20;99.90
20658;DHT22;10488;50.846;4.078;2023-08-07T05:52:07;16.10;99.90
20658;DHT22;10488;50.846;4.078;2023-08-07T05:54:33;16.80;99.90
20658;DHT22;10488;50.846;4.078;2023-08-07T05:56:58;17.30;99.90
20658;DHT22;10488;50.846;4.078;2023-08-07T05:59:24;18.00;99.90
20658;DHT22;10488;50.846;4.078;2023-08-07T06:01:50;18.70;99.90
20658;DHT22;10488;50.846;4.078;2023-08-07T06:04:16;19.20;99.90
20658;DHT22;10488;50.846;4.078;2023-08-07T06:06:42;19.30;99.90
20658;DHT22;10488;50.846;4.078;2023-08-07T06:09:08;19.70;99.90
20658;DHT22;10488;50.846;4.078;2023-08-07T06:11:34;19.60;99.90
20658;DHT22;10488;50.846;4.078;2023-08-07T06:14:00;20.20;99.90
20658;DHT22;10488;50.846;4.078;2023-08-07T06:16:26;20.90;99.90
20658;DHT22;10488;50.846;4.078;2023-08-07T06:18:53;21.30;99.90
20658;DHT22;10488;50.846;4.078;2023-08-07T06:21:19;21.60;99.90
20658;DHT22;10488;50.846;4.078;2023-08-07T06:23:45;21.30;99.90
20658;DHT22;10488;50.846;4.078;2023-08-07T06:26:11;20.80;99.90
20658;DHT22;10488;50.846;4.078;2023-08-07T06:28:37;21.60;99.90
20658;DHT22;10488;50.846;4.078;2023-08-07T06:31:04;21.30;99.90
20658;DHT22;10488;50.846;4.078;2023-08-07T06:33:31;21.50;99.90
20658;DHT22;10488;50.846;4.078;2023-08-07T06:35:57;20.90;99.90
20658;DHT22;10488;50.846;4.078;2023-08-07T06:38:23;20.60;99.90
20658;DHT22;10488;50.846;4.078;2023-08-07T06:40:49;21.10;99.90
20658;DHT22;10488;50.846;4.078;2023-08-07T06:43:14;21.70;99.90
20658;DHT22;10488;50.846;4.078;2023-08-07T06:45:40;21.80;99.90
20658;DHT22;10488;50.846;4.078;2023-08-07T06:48:05;22.40;99.90
20658;DHT22;10488;50.846;4.078;2023-08-07T06:50:31;22.20;99.90
20658;DHT22;10488;50.846;4.078;2023-08-07T06:52:57;22.80;99.90
20658;DHT22;10488;50.846;4.078;2023-08-07T06:55:23;22.20;99.90
20658;DHT22;10488;50.846;4.078;2023-08-07T06:57:48;22.30;99.90
20658;DHT22;10488;50.846;4.078;2023-08-07T07:00:15;22.20;99.90
20658;DHT22;10488;50.846;4.078;2023-08-07T07:02:41;21.90;99.90
20658;DHT22;10488;50.846;4.078;2023-08-07T07:05:06;22.40;99.90
20658;DHT22;10488;50.846;4.078;2023-08-07T07:07:32;21.90;99.90
20658;DHT22;10488;50.846;4.078;2023-08-07T07:09:58;22.50;99.90
20658;DHT22;10488;50.846;4.078;2023-08-07T07:12:26;22.30;99.90
20658;DHT22;10488;50.846;4.078;2023-08-07T07:14:52;22.00;99.90
20658;DHT22;10488;50.846;4.078;2023-08-07T07:17:18;21.20;99.90
20658;DHT22;10488;50.846;4.078;2023-08-07T07:19:43;21.90;99.90
20658;DHT22;10488;50.846;4.078;2023-08-07T07:22:09;22.00;99.90
20658;DHT22;10488;50.846;4.078;2023-08-07T07:24:35;22.00;99.90
20658;DHT22;10488;50.846;4.078;2023-08-07T07:27:00;22.00;99.90
20658;DHT22;10488;50.846;4.078;2023-08-07T07:29:26;21.50;99.90
20658;DHT22;10488;50.846;4.078;2023-08-07T07:31:52;20.70;99.90
20658;DHT22;10488;50.846;4.078;2023-08-07T07:34:19;21.40;99.90
20658;DHT22;10488;50.846;4.078;2023-08-07T07:36:44;22.00;99.90
20658;DHT22;10488;50.846;4.078;2023-08-07T07:39:11;22.20;99.90
20658;DHT22;10488;50.846;4.078;2023-08-07T07:41:36;22.10;99.90
20658;DHT22;10488;50.846;4.078;2023-08-07T07:44:02;22.00;99.90
20658;DHT22;10488;50.846;4.078;2023-08-07T07:46:28;22.30;99.90
20658;DHT22;10488;50.846;4.078;2023-08-07T07:48:54;22.40;99.90
20658;DHT22;10488;50.846;4.078;2023-08-07T07:51:21;22.60;99.90
20658;DHT22;10488;50.846;4.078;2023-08-07T07:53:47;22.80;99.90
20658;DHT22;10488;50.846;4.078;2023-08-07T07:56:12;22.50;99.90
20658;DHT22;10488;50.846;4.078;2023-08-07T07:58:38;22.40;99.90
20658;DHT22;10488;50.846;4.078;2023-08-07T08:01:06;22.60;99.90
20658;DHT22;10488;50.846;4.078;2023-08-07T08:03:32;22.90;99.90
20658;DHT22;10488;50.846;4.078;2023-08-07T08:05:58;22.50;99.90
20658;DHT22;10488;50.846;4.078;2023-08-07T08:08:23;22.90;99.90
20658;DHT22;10488;50.846;4.078;2023-08-07T08:10:49;23.00;99.90
20658;DHT22;10488;50.846;4.078;2023-08-07T08:13:16;22.60;99.90
20658;DHT22;10488;50.846;4.078;2023-08-07T08:15:43;22.60;99.90
20658;DHT22;10488;50.846;4.078;2023-08-07T08:18:09;22.00;99.90
20658;DHT22;10488;50.846;4.078;2023-08-07T08:20:35;22.40;99.90
20658;DHT22;10488;50.846;4.078;2023-08-07T08:23:00;22.90;99.90
20658;DHT22;10488;50.846;4.078;2023-08-07T08:25:26;22.10;99.90
20658;DHT22;10488;50.846;4.078;2023-08-07T08:27:52;21.90;99.90
20658;DHT22;10488;50.846;4.078;2023-08-07T08:30:17;21.80;99.90
20658;DHT22;10488;50.846;4.078;2023-08-07T08:32:43;21.40;99.90
20658;DHT22;10488;50.846;4.078;2023-08-07T08:35:09;21.50;99.90
20658;DHT22;10488;50.846;4.078;2023-08-07T08:37:35;22.20;99.90
20658;DHT22;10488;50.846;4.078;2023-08-07T08:40:01;21.70;99.90
20658;DHT22;10488;50.846;4.078;2023-08-07T08:42:27;21.90;99.90
20658;DHT22;10488;50.846;4.078;2023-08-07T08:44:55;22.00;99.90
20658;DHT22;10488;50.846;4.078;2023-08-07T08:47:21;22.30;99.90
20658;DHT22;10488;50.846;4.078;2023-08-07T08:49:51;21.20;99.90
20658;DHT22;10488;50.846;4.078;2023-08-07T08:52:20;21.30;99.90
20658;DHT22;10488;50.846;4.078;2023-08-07T08:54:47;21.40;99.90
20658;DHT22;10488;50.846;4.078;2023-08-07T08:57:13;21.70;99.90
20658;DHT22;10488;50.846;4.078;2023-08-07T08:59:41;21.90;99.90
20658;DHT22;10488;50.846;4.078;2023-08-07T09:02:07;22.10;99.90
20658;DHT22;10488;50.846;4.078;2023-08-07T09:04:33;21.70;99.90
20658;DHT22;10488;50.846;4.078;2023-08-07T09:07:00;21.60;99.90
20658;DHT22;10488;50.846;4.078;2023-08-07T09:09:27;21.20;99.90
20658;DHT22;10488;50.846;4.078;2023-08-07T09:11:55;21.30;99.90
20658;DHT22;10488;50.846;4.078;2023-08-07T09:14:26;21.00;99.90
20658;DHT22;10488;50.846;4.078;2023-08-07T09:16:53;21.30;99.90
20658;DHT22;10488;50.846;4.078;2023-08-07T09:19:19;21.10;99.90
20658;DHT22;10488;50.846;4.078;2023-08-07T09:21:45;21.80;99.90
20658;DHT22;10488;50.846;4.078;2023-08-07T09:24:11;22.50;99.90
20658;DHT22;10488;50.846;4.078;2023-08-07T09:26:38;22.20;99.90
20658;DHT22;10488;50.846;4.078;2023-08-07T09:29:07;22.10;99.90
20658;DHT22;10488;50.846;4.078;2023-08-07T09:31:37;21.90;99.90
20658;DHT22;10488;50.846;4.078;2023-08-07T09:34:03;21.60;99.90
20658;DHT22;10488;50.846;4.078;2023-08-07T09:36:34;21.50;99.90
20658;DHT22;10488;50.846;4.078;2023-08-07T09:39:03;21.90;99.90
20658;DHT22;10488;50.846;4.078;2023-08-07T09:41:30;21.60;99.90
20658;DHT22;10488;50.846;4.078;2023-08-07T09:43:56;21.90;99.90
20658;DHT22;10488;50.846;4.078;2023-08-07T09:46:23;21.10;99.90
20658;DHT22;10488;50.846;4.078;2023-08-07T09:48:50;21.50;99.90
20658;DHT22;10488;50.846;4.078;2023-08-07T09:51:17;21.30;99.90
20658;DHT22;10488;50.846;4.078;2023-08-07T09:53:43;21.30;99.90
20658;DHT22;10488;50.846;4.078;2023-08-07T09:56:08;21.00;99.90
20658;DHT22;10488;50.846;4.078;2023-08-07T09:58:34;20.90;99.90
20658;DHT22;10488;50.846;4.078;2023-08-07T10:01:03;20.90;99.90
20658;DHT22;10488;50.846;4.078;2023-08-07T10:03:29;20.80;99.90
20658;DHT22;10488;50.846;4.078;2023-08-07T10:05:55;19.80;99.90
20658;DHT22;10488;50.846;4.078;2023-08-07T10:08:22;20.10;99.90
20658;DHT22;10488;50.846;4.078;2023-08-07T10:10:48;20.30;99.90
20658;DHT22;10488;50.846;4.078;2023-08-07T10:13:14;20.50;99.90
20658;DHT22;10488;50.846;4.078;2023-08-07T10:15:40;20.70;99.90
20658;DHT22;10488;50.846;4.078;2023-08-07T10:18:08;20.90;99.90
20658;DHT22;10488;50.846;4.078;2023-08-07T10:20:35;21.20;99.90
20658;DHT22;10488;50.846;4.078;2023-08-07T10:23:08;21.40;99.90
20658;DHT22;10488;50.846;4.078;2023-08-07T10:25:37;21.40;99.90
20658;DHT22;10488;50.846;4.078;2023-08-07T10:28:06;21.30;99.90
20658;DHT22;10488;50.846;4.078;2023-08-07T10:30:34;20.60;99.90
20658;DHT22;10488;50.846;4.078;2023-08-07T10:33:01;20.90;99.90
20658;DHT22;10488;50.846;4.078;2023-08-07T10:35:31;21.00;99.90
20658;DHT22;10488;50.846;4.078;2023-08-07T10:38:07;21.20;99.90
20658;DHT22;10488;50.846;4.078;2023-08-07T10:40:34;21.30;99.90
20658;DHT22;10488;50.846;4.078;2023-08-07T10:45:34;21.60;99.90
20658;DHT22;10488;50.846;4.078;2023-08-07T10:48:06;22.10;99.90
20658;DHT22;10488;50.846;4.078;2023-08-07T10:50:46;22.20;99.90
20658;DHT22;10488;50.846;4.078;2023-08-07T10:53:31;22.30;99.90
20658;DHT22;10488;50.846;4.078;2023-08-07T10:56:28;22.00;99.90
20658;DHT22;10488;50.846;4.078;2023-08-07T10:58:49;22.50;99.90
20658;DHT22;10488;50.846;4.078;2023-08-07T11:04:00;22.80;99.90
20658;DHT22;10488;50.846;4.078;2023-08-07T11:06:30;22.00;99.90
20658;DHT22;10488;50.846;4.078;2023-08-07T11:08:57;22.00;99.90
20658;DHT22;10488;50.846;4.078;2023-08-07T11:11:23;22.00;99.90
20658;DHT22;10488;50.846;4.078;2023-08-07T11:13:49;22.30;99.90
20658;DHT22;10488;50.846;4.078;2023-08-07T11:16:15;22.60;99.90
20658;DHT22;10488;50.846;4.078;2023-08-07T11:18:42;22.60;99.90
20658;DHT22;10488;50.846;4.078;2023-08-07T11:21:09;22.30;99.90
20658;DHT22;10488;50.846;4.078;2023-08-07T11:23:39;22.20;99.90
20658;DHT22;10488;50.846;4.078;2023-08-07T11:26:06;22.30;99.90
20658;DHT22;10488;50.846;4.078;2023-08-07T11:28:32;22.60;99.90
20658;DHT22;10488;50.846;4.078;2023-08-07T11:30:58;23.00;99.90
20658;DHT22;10488;50.846;4.078;2023-08-07T11:33:25;23.20;99.90
20658;DHT22;10488;50.846;4.078;2023-08-07T11:35:52;23.30;99.90
20658;DHT22;10488;50.846;4.078;2023-08-07T11:38:34;23.20;99.90
20658;DHT22;10488;50.846;4.078;2023-08-07T11:41:01;23.20;99.90
20658;DHT22;10488;50.846;4.078;2023-08-07T11:43:29;22.90;99.90
20658;DHT22;10488;50.846;4.078;2023-08-07T11:45:56;22.40;99.90
20658;DHT22;10488;50.846;4.078;2023-08-07T11:48:26;22.30;99.90
20658;DHT22;10488;50.846;4.078;2023-08-07T11:50:53;22.90;99.90
20658;DHT22;10488;50.846;4.078;2023-08-07T11:53:23;23.10;99.90
20658;DHT22;10488;50.846;4.078;2023-08-07T11:58:26;23.70;99.90
20658;DHT22;10488;50.846;4.078;2023-08-07T12:00:53;24.00;99.90
20658;DHT22;10488;50.846;4.078;2023-08-07T12:03:30;23.70;99.90
20658;DHT22;10488;50.846;4.078;2023-08-07T12:05:57;22.90;99.90
20658;DHT22;10488;50.846;4.078;2023-08-07T12:08:24;22.70;99.90
20658;DHT22;10488;50.846;4.078;2023-08-07T12:10:53;22.40;99.90
20658;DHT22;10488;50.846;4.078;2023-08-07T12:13:23;22.60;99.90
20658;DHT22;10488;50.846;4.078;2023-08-07T12:15:51;22.50;99.90
20658;DHT22;10488;50.846;4.078;2023-08-07T12:18:19;22.40;99.90
20658;DHT22;10488;50.846;4.078;2023-08-07T12:20:46;22.30;99.90
20658;DHT22;10488;50.846;4.078;2023-08-07T12:23:15;22.40;99.90
20658;DHT22;10488;50.846;4.078;2023-08-07T12:25:45;22.60;99.90
20658;DHT22;10488;50.846;4.078;2023-08-07T12:28:10;22.50;99.90
20658;DHT22;10488;50.846;4.078;2023-08-07T12:30:37;23.00;99.90
20658;DHT22;10488;50.846;4.078;2023-08-07T12:33:03;23.10;99.90
20658;DHT22;10488;50.846;4.078;2023-08-07T12:35:33;22.90;99.90
20658;DHT22;10488;50.846;4.078;2023-08-07T12:37:58;23.20;99.90
20658;DHT22;10488;50.846;4.078;2023-08-07T12:40:25;23.20;99.90
20658;DHT22;10488;50.846;4.078;2023-08-07T12:42:51;23.30;99.90
20658;DHT22;10488;50.846;4.078;2023-08-07T12:45:17;23.60;99.90
20658;DHT22;10488;50.846;4.078;2023-08-07T12:47:44;23.70;99.90
20658;DHT22;10488;50.846;4.078;2023-08-07T12:50:10;23.20;99.90
20658;DHT22;10488;50.846;4.078;2023-08-07T12:52:36;23.40;99.90
20658;DHT22;10488;50.846;4.078;2023-08-07T12:55:02;23.50;99.90
20658;DHT22;10488;50.846;4.078;2023-08-07T12:57:27;23.60;99.90
20658;DHT22;10488;50.846;4.078;2023-08-07T12:59:53;23.60;99.90
20658;DHT22;10488;50.846;4.078;2023-08-07T13:02:19;23.50;99.90
20658;DHT22;10488;50.846;4.078;2023-08-07T13:04:44;23.60;99.90
20658;DHT22;10488;50.846;4.078;2023-08-07T13:07:11;23.20;99.90
20658;DHT22;10488;50.846;4.078;2023-08-07T13:09:36;23.50;99.90
20658;DHT22;10488;50.846;4.078;2023-08-07T13:12:02;23.30;99.90
20658;DHT22;10488;50.846;4.078;2023-08-07T13:14:28;23.50;99.90
20658;DHT22;10488;50.846;4.078;2023-08-07T13:16:53;23.00;99.90
20658;DHT22;10488;50.846;4.078;2023-08-07T13:19:19;22.90;99.90
20658;DHT22;10488;50.846;4.078;2023-08-07T13:21:45;22.80;99.90
20658;DHT22;10488;50.846;4.078;2023-08-07T13:24:11;22.90;99.90
20658;DHT22;10488;50.846;4.078;2023-08-07T13:26:37;23.20;99.90
20658;DHT22;10488;50.846;4.078;2023-08-07T13:29:04;23.10;99.90
20658;DHT22;10488;50.846;4.078;2023-08-07T13:31:29;23.10;99.90
20658;DHT22;10488;50.846;4.078;2023-08-07T13:33:55;23.20;99.90
20658;DHT22;10488;50.846;4.078;2023-08-07T13:36:21;22.70;99.90
20658;DHT22;10488;50.846;4.078;2023-08-07T13:38:47;22.30;99.90
20658;DHT22;10488;50.846;4.078;2023-08-07T13:41:12;22.50;99.90
20658;DHT22;10488;50.846;4.078;2023-08-07T13:43:38;22.70;99.90
20658;DHT22;10488;50.846;4.078;2023-08-07T13:46:04;22.30;99.90
20658;DHT22;10488;50.846;4.078;2023-08-07T13:48:29;21.30;99.90
20658;DHT22;10488;50.846;4.078;2023-08-07T13:50:55;21.40;99.90
20658;DHT22;10488;50.846;4.078;2023-08-07T13:53:21;21.50;99.90
20658;DHT22;10488;50.846;4.078;2023-08-07T13:55:49;21.40;99.90
20658;DHT22;10488;50.846;4.078;2023-08-07T13:58:15;21.60;99.90
20658;DHT22;10488;50.846;4.078;2023-08-07T14:00:41;21.40;99.90
20658;DHT22;10488;50.846;4.078;2023-08-07T14:03:08;21.40;99.90
20658;DHT22;10488;50.846;4.078;2023-08-07T14:05:35;20.80;99.90
20658;DHT22;10488;50.846;4.078;2023-08-07T14:08:00;20.90;99.90
20658;DHT22;10488;50.846;4.078;2023-08-07T14:10:27;21.20;99.90
20658;DHT22;10488;50.846;4.078;2023-08-07T14:12:53;21.60;99.90
20658;DHT22;10488;50.846;4.078;2023-08-07T14:15:19;21.90;99.90
20658;DHT22;10488;50.846;4.078;2023-08-07T14:17:44;22.00;99.90
20658;DHT22;10488;50.846;4.078;2023-08-07T14:20:10;21.70;99.90
20658;DHT22;10488;50.846;4.078;2023-08-07T14:22:36;21.40;99.90
20658;DHT22;10488;50.846;4.078;2023-08-07T14:25:04;21.40;99.90
20658;DHT22;10488;50.846;4.078;2023-08-07T14:27:30;21.10;99.90
20658;DHT22;10488;50.846;4.078;2023-08-07T14:29:56;21.00;99.90
20658;DHT22;10488;50.846;4.078;2023-08-07T14:32:22;21.10;99.90
20658;DHT22;10488;50.846;4.078;2023-08-07T14:34:48;21.10;99.90
20658;DHT22;10488;50.846;4.078;2023-08-07T14:37:14;21.40;99.90
20658;DHT22;10488;50.846;4.078;2023-08-07T14:39:40;21.20;99.90
20658;DHT22;10488;50.846;4.078;2023-08-07T14:42:06;21.40;99.90
20658;DHT22;10488;50.846;4.078;2023-08-07T14:44:33;20.80;99.90
20658;DHT22;10488;50.846;4.078;2023-08-07T14:46:58;20.80;99.90
20658;DHT22;10488;50.846;4.078;2023-08-07T14:49:24;21.00;99.90
20658;DHT22;10488;50.846;4.078;2023-08-07T14:51:50;21.30;99.90
20658;DHT22;10488;50.846;4.078;2023-08-07T14:54:16;21.50;99.90
20658;DHT22;10488;50.846;4.078;2023-08-07T14:56:41;21.80;99.90
20658;DHT22;10488;50.846;4.078;2023-08-07T14:59:07;21.90;99.90
20658;DHT22;10488;50.846;4.078;2023-08-07T15:01:33;22.20;99.90
20658;DHT22;10488;50.846;4.078;2023-08-07T15:03:58;22.30;99.90
20658;DHT22;10488;50.846;4.078;2023-08-07T15:06:24;22.40;99.90
20658;DHT22;10488;50.846;4.078;2023-08-07T15:08:50;22.50;99.90
20658;DHT22;10488;50.846;4.078;2023-08-07T15:11:16;22.50;99.90
20658;DHT22;10488;50.846;4.078;2023-08-07T15:13:42;22.50;99.90
20658;DHT22;10488;50.846;4.078;2023-08-07T15:16:08;22.40;99.90
20658;DHT22;10488;50.846;4.078;2023-08-07T15:18:33;22.40;99.90
20658;DHT22;10488;50.846;4.078;2023-08-07T15:20:59;22.50;99.90
20658;DHT22;10488;50.846;4.078;2023-08-07T15:23:28;21.50;99.90
20658;DHT22;10488;50.846;4.078;2023-08-07T15:25:53;21.50;99.90
20658;DHT22;10488;50.846;4.078;2023-08-07T15:28:19;21.80;99.90
20658;DHT22;10488;50.846;4.078;2023-08-07T15:30:49;21.70;99.90
20658;DHT22;10488;50.846;4.078;2023-08-07T15:33:16;21.60;99.90
20658;DHT22;10488;50.846;4.078;2023-08-07T15:35:42;21.80;99.90
20658;DHT22;10488;50.846;4.078;2023-08-07T15:38:08;21.90;99.90